createdAt,value
2019-02-23T00:00:24.453Z,20.12
2019-02-23T00:02:55.187Z,19.17
2019-02-23T00:05:24.312Z,20.72
2019-02-23T00:07:53.430Z,21.77
2019-02-23T00:10:22.561Z,20.60
2019-02-23T00:12:51.707Z,20.37
2019-02-23T00:15:20.803Z,21.02
2019-02-23T00:17:49.923Z,21.05
2019-02-23T00:20:19.058Z,19.77
2019-02-23T00:22:48.179Z,20.48
2019-02-23T00:25:17.297Z,20.15
2019-02-23T00:27:46.424Z,20.60
2019-02-23T00:30:15.543Z,19.57
2019-02-23T00:32:44.664Z,19.73
2019-02-23T00:35:13.817Z,20.10
2019-02-23T00:37:42.933Z,19.82
2019-02-23T00:40:12.049Z,18.80
2019-02-23T00:42:41.174Z,19.70
2019-02-23T00:45:11.262Z,18.35
2019-02-23T00:47:40.377Z,20.35
2019-02-23T00:50:09.499Z,19.27
2019-02-23T00:52:38.618Z,21.25
2019-02-23T00:55:08.169Z,19.50
2019-02-23T00:57:37.290Z,19.35
2019-02-23T01:00:09.451Z,20.88
2019-02-23T01:02:39.074Z,21.02
2019-02-23T01:05:08.201Z,20.08
2019-02-23T01:07:37.498Z,20.23
2019-02-23T01:10:09.252Z,21.40
2019-02-23T01:12:38.377Z,20.50
2019-02-23T01:15:09.435Z,21.45
2019-02-23T01:17:38.562Z,21.42
2019-02-23T01:20:09.323Z,20.90
2019-02-23T01:22:38.441Z,19.80
2019-02-23T01:25:07.561Z,21.80
2019-02-23T01:27:36.684Z,20.88
2019-02-23T01:30:08.380Z,21.93
2019-02-23T01:32:37.517Z,21.23
2019-02-23T01:35:06.632Z,19.60
2019-02-23T01:37:35.755Z,21.05
2019-02-23T01:40:07.815Z,21.75
2019-02-23T01:42:36.933Z,21.68
2019-02-23T01:45:07.504Z,22.75
2019-02-23T01:47:36.617Z,22.95
2019-02-23T01:50:06.781Z,22.65
2019-02-23T01:52:35.900Z,21.10
2019-02-23T01:55:06.066Z,21.65
2019-02-23T01:57:35.421Z,21.00
2019-02-23T02:00:07.447Z,22.15
2019-02-23T02:02:36.639Z,22.90
2019-02-23T02:05:06.705Z,20.92
2019-02-23T02:07:35.822Z,22.10
2019-02-23T02:10:07.585Z,21.60
2019-02-23T02:12:36.774Z,21.57
2019-02-23T02:15:11.197Z,20.27
2019-02-23T02:17:40.319Z,19.73
2019-02-23T02:20:11.342Z,22.25
2019-02-23T02:22:40.425Z,22.07
2019-02-23T02:25:09.548Z,21.52
2019-02-23T02:27:38.662Z,21.17
2019-02-23T02:30:10.035Z,20.10
2019-02-23T02:32:39.154Z,20.57
2019-02-23T02:35:09.611Z,20.17
2019-02-23T02:37:38.732Z,22.95
2019-02-23T02:40:08.888Z,21.93
2019-02-23T02:42:38.012Z,22.17
2019-02-23T02:45:09.580Z,22.85
2019-02-23T02:47:38.700Z,22.73
2019-02-23T02:50:09.265Z,22.73
2019-02-23T02:52:38.392Z,21.93
2019-02-23T02:55:08.754Z,22.73
2019-02-23T02:57:37.876Z,23.10
2019-02-23T03:00:10.913Z,21.15
2019-02-23T03:02:40.298Z,23.12
2019-02-23T03:05:09.759Z,22.55
2019-02-23T03:07:38.907Z,21.85
2019-02-23T03:10:08.008Z,21.55
2019-02-23T03:12:37.149Z,20.50
2019-02-23T03:15:07.478Z,22.65
2019-02-23T03:17:36.606Z,20.20
2019-02-23T03:20:07.823Z,21.57
2019-02-23T03:22:37.884Z,21.65
2019-02-23T03:25:07.477Z,21.17
2019-02-23T03:27:36.611Z,21.68
2019-02-23T03:30:08.472Z,20.35
2019-02-23T03:32:37.595Z,20.23
2019-02-23T03:35:06.721Z,20.80
2019-02-23T03:37:35.843Z,21.00
2019-02-23T03:40:06.506Z,21.80
2019-02-23T03:42:35.645Z,21.45
2019-02-23T03:45:04.951Z,24.18
2019-02-23T03:47:34.146Z,22.65
2019-02-23T03:50:03.799Z,21.35
2019-02-23T03:52:32.928Z,20.48
2019-02-23T03:55:02.057Z,22.02
2019-02-23T03:57:31.176Z,20.88
2019-02-23T04:00:00.462Z,20.92
2019-02-23T04:02:29.606Z,18.87
2019-02-23T04:04:58.725Z,20.45
2019-02-23T04:07:27.845Z,20.60
2019-02-23T04:09:56.969Z,20.08
2019-02-23T04:12:26.096Z,20.92
2019-02-23T04:14:55.218Z,19.37
2019-02-23T04:17:24.691Z,19.85
2019-02-23T04:19:53.856Z,19.65
2019-02-23T04:22:22.934Z,20.30
2019-02-23T04:24:52.056Z,19.45
2019-02-23T04:27:21.197Z,19.35
2019-02-23T04:29:50.306Z,19.98
2019-02-23T04:32:19.429Z,19.70
2019-02-23T04:34:48.881Z,19.07
2019-02-23T04:37:18.005Z,19.17
2019-02-23T04:39:47.124Z,19.32
2019-02-23T04:42:16.248Z,19.40
2019-02-23T04:44:45.382Z,19.40
2019-02-23T04:47:14.493Z,19.30
2019-02-23T04:49:46.888Z,19.92
2019-02-23T04:52:16.003Z,18.23
2019-02-23T04:54:45.124Z,19.62
2019-02-23T04:57:14.263Z,17.65
2019-02-23T04:59:43.372Z,17.82
2019-02-23T05:02:12.834Z,17.73
2019-02-23T05:04:41.962Z,17.90
2019-02-23T05:07:11.078Z,16.70
2019-02-23T05:09:41.296Z,16.48
2019-02-23T05:12:10.416Z,17.65
2019-02-23T05:14:39.549Z,16.80
2019-02-23T05:17:08.665Z,16.10
2019-02-23T05:19:37.790Z,16.90
2019-02-23T05:22:06.918Z,16.20
2019-02-23T05:24:36.046Z,16.30
2019-02-23T05:27:05.163Z,15.48
2019-02-23T05:29:34.286Z,15.48
2019-02-23T05:32:03.418Z,15.48
2019-02-23T05:34:32.540Z,17.05
2019-02-23T05:37:01.657Z,15.90
2019-02-23T05:39:30.801Z,16.30
2019-02-23T05:41:59.917Z,16.02
2019-02-23T05:44:29.041Z,16.35
2019-02-23T05:46:58.244Z,17.05
2019-02-23T05:49:27.371Z,16.35
2019-02-23T05:51:56.485Z,16.23
2019-02-23T05:54:25.620Z,17.23
2019-02-23T05:56:54.741Z,18.23
2019-02-23T05:59:23.877Z,17.10
2019-02-23T06:01:52.990Z,17.48
2019-02-23T06:04:22.114Z,17.25
2019-02-23T06:06:52.208Z,16.30
2019-02-23T06:09:21.618Z,16.27
2019-02-23T06:11:50.741Z,15.63
2019-02-23T06:14:19.884Z,15.30
2019-02-23T06:16:49.004Z,16.75
2019-02-23T06:19:18.118Z,17.55
2019-02-23T06:21:53.617Z,17.20
2019-02-23T06:24:18.341Z,15.05
2019-02-23T06:26:47.718Z,16.35
2019-02-23T06:29:16.843Z,16.80
2019-02-23T06:31:45.968Z,18.00
2019-02-23T06:34:16.398Z,17.92
2019-02-23T06:36:45.916Z,16.95
2019-02-23T06:39:15.035Z,17.12
2019-02-23T06:41:44.472Z,18.62
2019-02-23T06:44:13.592Z,17.57
2019-02-23T06:46:42.971Z,17.23
2019-02-23T06:49:12.383Z,18.23
2019-02-23T06:51:41.509Z,17.48
2019-02-23T06:54:10.634Z,17.23
2019-02-23T06:56:39.999Z,17.90
2019-02-23T06:59:09.126Z,18.73
2019-02-23T07:01:38.575Z,18.92
2019-02-23T07:04:07.704Z,19.17
2019-02-23T07:06:36.835Z,17.67
2019-02-23T07:09:05.965Z,19.05
2019-02-23T07:11:35.165Z,18.42
2019-02-23T07:14:04.281Z,20.40
2019-02-23T07:16:33.415Z,19.30
2019-02-23T07:19:02.548Z,18.45
2019-02-23T07:21:31.667Z,18.98
2019-02-23T07:24:00.821Z,18.85
2019-02-23T07:26:29.954Z,17.30
2019-02-23T07:28:59.075Z,17.35
2019-02-23T07:31:28.210Z,18.15
2019-02-23T07:33:57.569Z,19.67
2019-02-23T07:36:26.953Z,18.07
2019-02-23T07:38:56.065Z,18.32
2019-02-23T07:41:25.199Z,18.67
2019-02-23T07:43:54.650Z,17.27
2019-02-23T07:46:23.797Z,17.00
2019-02-23T07:48:53.253Z,17.40
2019-02-23T07:51:22.370Z,16.82
2019-02-23T07:53:51.520Z,17.25
2019-02-23T07:56:20.633Z,18.32
2019-02-23T07:58:49.771Z,15.58
2019-02-23T08:01:18.882Z,17.40
2019-02-23T08:03:48.976Z,18.12
2019-02-23T08:06:18.098Z,16.57
2019-02-23T08:08:48.267Z,17.32
2019-02-23T08:11:17.382Z,17.05
2019-02-23T08:13:46.535Z,16.35
2019-02-23T08:16:15.883Z,16.75
2019-02-23T08:18:45.402Z,18.12
2019-02-23T08:21:14.612Z,16.48
2019-02-23T08:23:43.754Z,16.65
2019-02-23T08:26:12.962Z,18.15
2019-02-23T08:28:42.124Z,17.77
2019-02-23T08:31:13.275Z,17.80
2019-02-23T08:33:42.104Z,16.12
2019-02-23T08:36:11.261Z,16.32
2019-02-23T08:38:40.763Z,17.02
2019-02-23T08:41:09.953Z,16.02
2019-02-23T08:43:39.316Z,18.05
2019-02-23T08:46:08.486Z,17.85
2019-02-23T08:48:37.636Z,15.43
2019-02-23T08:51:07.041Z,16.10
2019-02-23T08:53:36.557Z,15.60
2019-02-23T08:56:05.985Z,15.45
2019-02-23T08:58:35.133Z,13.40
2019-02-23T09:01:04.568Z,14.10
2019-02-23T09:03:33.792Z,15.55
2019-02-23T09:06:02.935Z,14.53
2019-02-23T09:08:32.089Z,13.60
2019-02-23T09:11:01.225Z,14.00
2019-02-23T09:13:30.390Z,13.75
2019-02-23T09:15:59.795Z,13.80
2019-02-23T09:18:29.071Z,13.95
2019-02-23T09:20:58.363Z,12.50
2019-02-23T09:23:27.637Z,13.13
2019-02-23T09:25:57.796Z,13.50
2019-02-23T09:28:27.280Z,13.70
2019-02-23T09:30:59.288Z,13.53
2019-02-23T09:33:28.558Z,14.98
2019-02-23T09:35:57.776Z,12.43
2019-02-23T09:38:26.972Z,12.73
2019-02-23T09:40:57.094Z,13.53
2019-02-23T09:43:26.315Z,14.03
2019-02-23T09:45:55.574Z,13.75
2019-02-23T09:48:24.899Z,13.28
2019-02-23T09:50:54.121Z,12.68
2019-02-23T09:53:23.355Z,13.25
2019-02-23T09:55:52.648Z,13.55
2019-02-23T09:58:21.817Z,12.03
2019-02-23T10:00:51.120Z,12.47
2019-02-23T10:03:20.237Z,12.15
2019-02-23T10:05:49.449Z,13.00
2019-02-23T10:08:18.643Z,12.93
2019-02-23T10:10:47.867Z,11.68
2019-02-23T10:13:17.082Z,11.68
2019-02-23T10:15:46.255Z,11.90
2019-02-23T10:18:15.472Z,11.73
2019-02-23T10:20:44.633Z,12.63
2019-02-23T10:23:21.586Z,12.15
2019-02-23T10:25:44.651Z,10.85
2019-02-23T10:28:14.104Z,11.70
2019-02-23T10:30:43.259Z,11.73
2019-02-23T10:33:12.408Z,11.78
2019-02-23T10:35:41.883Z,11.95
2019-02-23T10:38:11.292Z,11.85
2019-02-23T10:40:40.680Z,12.63
2019-02-23T10:43:10.297Z,12.70
2019-02-23T10:45:39.459Z,11.78
2019-02-23T10:48:08.918Z,11.75
2019-02-23T10:50:38.067Z,11.00
2019-02-23T10:53:07.228Z,12.15
2019-02-23T10:55:37.557Z,11.68
2019-02-23T10:58:06.691Z,13.03
2019-02-23T11:00:36.347Z,12.65
2019-02-23T11:03:05.814Z,11.48
2019-02-23T11:05:34.975Z,10.90
2019-02-23T11:08:04.159Z,9.53
2019-02-23T11:10:33.286Z,10.30
2019-02-23T11:13:02.444Z,9.38
2019-02-23T11:15:31.763Z,10.20
2019-02-23T11:18:02.877Z,10.40
2019-02-23T11:20:31.831Z,9.50
2019-02-23T11:23:01.283Z,9.85
2019-02-23T11:25:30.441Z,9.93
2019-02-23T11:27:59.575Z,9.63
2019-02-23T11:30:28.728Z,10.43
2019-02-23T11:32:57.882Z,8.98
2019-02-23T11:35:27.033Z,9.68
2019-02-23T11:37:56.166Z,9.73
2019-02-23T11:40:25.317Z,8.53
2019-02-23T11:42:54.453Z,9.90
2019-02-23T11:45:23.606Z,9.73
2019-02-23T11:47:52.752Z,11.68
2019-02-23T11:50:21.910Z,10.53
2019-02-23T11:52:51.059Z,20.72
2019-02-23T11:55:20.321Z,9.95
2019-02-23T11:57:49.900Z,11.38
2019-02-23T12:00:19.223Z,10.63
2019-02-23T12:02:52.425Z,10.58
2019-02-23T12:05:19.318Z,9.33
2019-02-23T12:07:48.462Z,9.45
2019-02-23T12:10:17.612Z,9.95
2019-02-23T12:12:47.115Z,10.18
2019-02-23T12:15:16.493Z,10.28
2019-02-23T12:17:45.646Z,11.75
2019-02-23T12:20:14.806Z,11.22
2019-02-23T12:24:59.624Z,11.43
2019-02-23T12:27:28.786Z,10.82
2019-02-23T12:29:57.997Z,11.90
2019-02-23T12:32:27.179Z,9.15
2019-02-23T12:34:57.460Z,10.13
2019-02-23T12:37:26.912Z,8.58
2019-02-23T12:39:56.051Z,8.60
2019-02-23T12:42:27.550Z,8.15
2019-02-23T12:44:56.120Z,7.15
2019-02-23T12:47:25.275Z,8.93
2019-02-23T12:49:54.417Z,11.45
2019-02-23T12:52:23.570Z,7.53
2019-02-23T12:54:52.755Z,7.53
2019-02-23T12:57:22.168Z,7.95
2019-02-23T12:59:51.306Z,7.35
2019-02-23T13:02:20.475Z,7.95
2019-02-23T13:04:49.617Z,7.53
2019-02-23T13:07:18.840Z,8.00
2019-02-23T13:09:48.278Z,7.80
2019-02-23T13:12:32.551Z,7.87
2019-02-23T13:15:04.954Z,7.45
2019-02-23T13:17:54.216Z,7.28
2019-02-23T13:20:35.506Z,7.10
2019-02-23T13:23:07.966Z,6.92
2019-02-23T13:25:58.269Z,7.00
2019-02-23T13:28:36.476Z,6.83
2019-02-23T13:31:17.768Z,8.03
2019-02-23T13:34:02.098Z,8.45
2019-02-23T13:36:55.408Z,7.78
2019-02-23T13:39:44.125Z,7.78
2019-02-23T13:42:40.542Z,7.65
2019-02-23T13:45:18.681Z,8.35
2019-02-23T13:48:09.377Z,8.20
2019-02-23T13:51:01.322Z,6.62
2019-02-23T13:53:58.994Z,6.95
2019-02-23T13:56:54.133Z,7.30
2019-02-23T13:59:50.583Z,6.42
2019-02-23T14:02:37.830Z,7.72
2019-02-23T14:05:31.460Z,6.60
2019-02-23T14:08:19.090Z,6.58
2019-02-23T14:11:09.420Z,7.08
2019-02-23T14:13:59.529Z,6.53
2019-02-23T14:16:43.865Z,7.12
2019-02-23T14:19:31.357Z,6.35
2019-02-23T14:22:27.605Z,6.95
2019-02-23T14:25:19.545Z,6.70
2019-02-23T14:28:06.752Z,6.05
2019-02-23T14:30:59.400Z,6.22
2019-02-23T14:34:03.435Z,6.97
2019-02-23T14:36:41.777Z,6.45
2019-02-23T14:39:23.187Z,6.53
2019-02-23T14:42:07.900Z,6.62
2019-02-23T14:45:04.258Z,6.25
2019-02-23T14:47:39.697Z,6.15
2019-02-23T14:50:20.810Z,5.25
2019-02-23T14:52:53.217Z,5.85
2019-02-23T14:55:31.039Z,6.22
2019-02-23T14:58:12.033Z,5.97
2019-02-23T15:00:50.124Z,6.40
2019-02-23T15:03:38.995Z,6.33
2019-02-23T15:06:14.099Z,6.33
2019-02-23T15:08:55.947Z,5.50
2019-02-23T15:11:28.334Z,5.45
2019-02-23T15:14:26.061Z,5.80
2019-02-23T15:17:12.930Z,6.80
2019-02-23T15:20:10.591Z,6.25
2019-02-23T15:22:58.202Z,6.20
2019-02-23T15:25:48.260Z,5.75
2019-02-23T15:28:37.459Z,5.28
2019-02-23T15:31:03.466Z,4.85
2019-02-23T15:33:52.064Z,5.47
2019-02-23T15:36:27.141Z,5.78
2019-02-23T15:39:05.364Z,5.78
2019-02-23T15:41:54.488Z,6.50
2019-02-23T15:44:35.666Z,6.45
2019-02-23T15:47:22.371Z,5.50
2019-02-23T15:49:51.474Z,6.42
2019-02-23T15:52:20.846Z,5.87
2019-02-23T15:54:50.155Z,5.97
2019-02-23T15:57:19.275Z,6.25
2019-02-23T15:59:48.390Z,5.85
2019-02-23T16:02:17.525Z,6.50
2019-02-23T16:04:46.647Z,6.72
2019-02-23T16:07:16.002Z,7.42
2019-02-23T16:09:45.119Z,6.45
2019-02-23T16:12:14.240Z,6.15
2019-02-23T16:14:43.364Z,5.87
2019-02-23T16:17:12.469Z,5.50
2019-02-23T16:19:41.591Z,5.75
2019-02-23T16:22:10.713Z,6.30
2019-02-23T16:24:39.827Z,5.75
2019-02-23T16:27:08.944Z,5.80
2019-02-23T16:29:38.808Z,6.20
2019-02-23T16:32:08.169Z,5.58
2019-02-23T16:34:37.286Z,5.62
2019-02-23T16:37:06.419Z,5.97
2019-02-23T16:39:35.799Z,6.28
2019-02-23T16:42:04.927Z,5.85
2019-02-23T16:44:34.043Z,5.70
2019-02-23T16:47:03.175Z,6.50
2019-02-23T16:49:32.337Z,6.15
2019-02-23T16:52:01.519Z,6.28
2019-02-23T16:54:30.688Z,6.85
2019-02-23T16:57:00.212Z,6.37
2019-02-23T16:59:30.218Z,7.37
2019-02-23T17:01:59.351Z,8.43
2019-02-23T17:04:28.639Z,8.53
2019-02-23T17:06:57.915Z,8.45
2019-02-23T17:09:27.050Z,7.72
2019-02-23T17:11:56.165Z,7.03
2019-02-23T17:14:25.312Z,6.37
2019-02-23T17:16:54.709Z,6.62
2019-02-23T17:19:23.822Z,7.97
2019-02-23T17:21:53.192Z,6.97
2019-02-23T17:24:22.321Z,6.75
2019-02-23T17:26:51.450Z,7.00
2019-02-23T17:29:20.588Z,7.22
2019-02-23T17:31:49.707Z,6.87
2019-02-23T17:34:18.827Z,6.50
2019-02-23T17:36:47.946Z,6.78
2019-02-23T17:39:17.320Z,5.80
2019-02-23T17:41:46.488Z,6.35
2019-02-23T17:44:15.842Z,11.43
2019-02-23T17:46:48.385Z,21.65
2019-02-23T17:49:15.793Z,26.52
2019-02-23T17:51:45.152Z,25.62
2019-02-23T17:54:14.510Z,24.72
2019-02-23T17:56:43.940Z,10.35
2019-02-23T17:59:14.042Z,9.88
2019-02-23T18:01:43.171Z,11.05
2019-02-23T18:04:12.320Z,12.18
2019-02-23T18:06:41.456Z,11.50
2019-02-23T18:09:10.582Z,8.20
2019-02-23T18:11:40.007Z,8.38
2019-02-23T18:14:09.373Z,7.75
2019-02-23T18:16:38.752Z,7.42
2019-02-23T18:19:07.881Z,7.75
2019-02-23T18:21:37.073Z,7.35
2019-02-23T18:24:06.330Z,8.20
2019-02-23T18:26:35.447Z,7.33
2019-02-23T18:29:04.565Z,6.53
2019-02-23T18:31:33.996Z,7.25
2019-02-23T18:34:03.417Z,6.97
2019-02-23T18:36:32.598Z,6.85
2019-02-23T18:39:01.717Z,6.85
2019-02-23T18:41:32.464Z,6.65
2019-02-23T18:44:01.583Z,6.80
2019-02-23T18:46:30.874Z,7.03
2019-02-23T18:49:00.000Z,6.60
2019-02-23T18:51:29.187Z,6.40
2019-02-23T18:53:58.359Z,7.03
2019-02-23T18:56:29.666Z,7.37
2019-02-23T18:58:58.309Z,7.03
2019-02-23T19:01:27.418Z,7.42
2019-02-23T19:03:56.797Z,6.83
2019-02-23T19:06:25.977Z,7.35
2019-02-23T19:08:55.346Z,7.53
2019-02-23T19:11:24.465Z,7.92
2019-02-23T19:13:53.825Z,8.03
2019-02-23T19:16:23.445Z,7.92
2019-02-23T19:18:52.554Z,8.80
2019-02-23T19:21:21.670Z,8.68
2019-02-23T19:23:50.871Z,8.20
2019-02-23T19:26:19.987Z,8.28
2019-02-23T19:28:49.345Z,8.93
2019-02-23T19:31:18.684Z,8.75
2019-02-23T19:33:47.882Z,8.05
2019-02-23T19:36:16.997Z,7.70
2019-02-23T19:38:46.124Z,7.83
2019-02-23T19:41:15.227Z,8.18
2019-02-23T19:43:44.360Z,7.65
2019-02-23T19:46:13.476Z,7.97
2019-02-23T19:48:42.670Z,7.75
2019-02-23T19:51:11.780Z,8.45
2019-02-23T19:53:42.013Z,8.18
2019-02-23T19:56:11.164Z,9.48
2019-02-23T19:58:40.772Z,8.23
2019-02-23T20:01:10.984Z,8.33
2019-02-23T20:03:40.610Z,7.87
2019-02-23T20:06:09.776Z,8.05
2019-02-23T20:08:38.967Z,8.20
2019-02-23T20:11:08.122Z,9.03
2019-02-23T20:13:37.463Z,8.50
2019-02-23T20:16:06.584Z,9.60
2019-02-23T20:18:35.781Z,9.38
2019-02-23T20:21:04.897Z,9.60
2019-02-23T20:23:34.178Z,8.43
2019-02-23T20:26:03.305Z,9.95
2019-02-23T20:28:32.504Z,10.08
2019-02-23T20:31:01.617Z,11.03
2019-02-23T20:33:30.986Z,12.35
2019-02-23T20:36:00.114Z,17.05
2019-02-23T20:38:29.239Z,12.88
2019-02-23T20:40:58.371Z,12.37
2019-02-23T20:43:27.488Z,10.32
2019-02-23T20:45:56.615Z,8.93
2019-02-23T20:48:25.976Z,8.95
2019-02-23T20:50:55.103Z,9.20
2019-02-23T20:53:24.496Z,8.93
2019-02-23T20:55:53.629Z,10.38
2019-02-23T20:58:22.752Z,9.43
2019-02-23T21:00:51.885Z,10.08
2019-02-23T21:03:21.001Z,9.38
2019-02-23T21:05:50.128Z,9.40
2019-02-23T21:08:19.245Z,9.70
2019-02-23T21:10:48.678Z,9.65
2019-02-23T21:13:17.793Z,9.55
2019-02-23T21:15:46.912Z,9.43
2019-02-23T21:18:16.028Z,10.63
2019-02-23T21:20:45.151Z,10.00
2019-02-23T21:23:14.270Z,11.22
2019-02-23T21:25:43.403Z,10.80
2019-02-23T21:28:12.532Z,11.95
2019-02-23T21:30:41.651Z,12.07
2019-02-23T21:33:10.780Z,12.05
2019-02-23T21:35:39.969Z,10.88
2019-02-23T21:38:09.116Z,10.65
2019-02-23T21:40:38.234Z,9.95
2019-02-23T21:43:07.359Z,10.15
2019-02-23T21:45:36.473Z,9.10
2019-02-23T21:48:05.608Z,10.03
2019-02-23T21:50:34.724Z,9.33
2019-02-23T21:53:03.923Z,9.78
2019-02-23T21:55:34.110Z,9.63
2019-02-23T21:58:03.371Z,9.75
2019-02-23T22:00:32.570Z,10.03
2019-02-23T22:03:01.931Z,9.68
2019-02-23T22:05:31.054Z,10.38
2019-02-23T22:08:00.569Z,10.78
2019-02-23T22:10:29.756Z,11.15
2019-02-23T22:12:58.881Z,11.53
2019-02-23T22:15:28.251Z,9.50
2019-02-23T22:17:57.701Z,10.88
2019-02-23T22:20:26.849Z,10.40
2019-02-23T22:22:55.994Z,10.72
2019-02-23T22:25:25.129Z,10.28
2019-02-23T22:27:54.553Z,10.30
2019-02-23T22:30:23.684Z,10.93
2019-02-23T22:32:52.803Z,10.03
2019-02-23T22:35:21.937Z,9.73
2019-02-23T22:37:51.050Z,10.72
2019-02-23T22:40:20.169Z,10.48
2019-02-23T22:42:49.291Z,10.95
2019-02-23T22:45:19.483Z,11.73
2019-02-23T22:47:48.602Z,10.13
2019-02-23T22:50:17.867Z,10.75
2019-02-23T22:52:47.225Z,10.10
2019-02-23T22:55:16.410Z,10.45
2019-02-23T22:57:45.499Z,10.20
2019-02-23T23:00:16.507Z,10.65
2019-02-23T23:02:47.281Z,10.48
2019-02-23T23:05:16.485Z,9.98
2019-02-23T23:07:45.642Z,10.00
2019-02-23T23:10:15.981Z,9.68
2019-02-23T23:12:45.110Z,9.90
2019-02-23T23:15:14.231Z,9.58
2019-02-23T23:17:43.578Z,9.88
2019-02-23T23:20:12.768Z,10.63
2019-02-23T23:22:41.891Z,10.03
2019-02-23T23:25:11.078Z,10.25
2019-02-23T23:27:48.921Z,10.10
2019-02-23T23:30:11.918Z,9.58
2019-02-23T23:32:41.503Z,9.13
2019-02-23T23:35:10.575Z,10.30
2019-02-23T23:37:39.697Z,9.28
2019-02-23T23:40:08.841Z,9.65
2019-02-23T23:42:38.129Z,9.73
2019-02-23T23:45:07.384Z,9.88
2019-02-23T23:47:38.645Z,9.75
2019-02-23T23:50:09.386Z,9.33
2019-02-23T23:52:38.508Z,9.93
2019-02-23T23:55:07.636Z,9.63
2019-02-23T23:57:37.078Z,9.95
